KMSY

Louis Armstrong New Orleans International Airport

New Orleans, Louisiana, USA
METAR KMSY 172105Z 00000KT 4SM -RA BR FEW003 BKN011 OVC034 20/20 A3009 RMK AO2 P0001 T02000200
Observed Flight Rules
Dec-17 @ 21:05 UTC (16 minutes ago) Marginal Visual Flight Rules
Wind Visibility Clouds Conditions
Calm 4 miles
  • Few at 300' AGL
  • Broken at 1,100' AGL
  • Overcast at 3,400' AGL
  • Light Rain
  • Mist
Temperatures Readings Precipitation
Current 20°C / 68°F
Dewpoint 20°C / 68°F
Humidity 100%
Altimeter 30.09" Hg
Pressure 1019 hPa
Elevation 5
Current Rain 0.01
METAR KMSY 172105Z 00000KT 4SM -RA BR FEW003 BKN011 OVC034 20/20 A3009 RMK AO2 P0001 T02000200
Observed Flight Rules
Dec-17 @ 21:05 UTC
(16 minutes ago)
MVFR
Wind Visibility
Calm 4 miles
Clouds
  • Few at 300' AGL
  • Broken at 1,100' AGL
  • Overcast at 3,400' AGL
Conditions
  • Light Rain
  • Mist
Temperature Dewpoint
20°C / 68°F 20°C / 68°F
Humidity Altimeter Pressure
100% 30.09" Hg 1019 hPa
Current Rain
0.01